Time;durP1;ratioP1;P1;durP2;ratioP2;P2;SDS_P1;SDS_P2;PMS_P1;PMS_P2;Temp;Humidity;BMP_temperature;BMP_pressure;BME280_temperature;BME280_humidity;BME280_pressure;Samples;Min_cycle;Max_cycle;Signal;HPM_P1;HPM_P2
2022/03/25 00:01:54;;;;;;;119.20;45.20;;;;;;;3.21;46.23;99539.66;4952242;28;20071;-64
2022/03/25 00:04:19;;;;;;;115.28;43.97;;;;;;;3.17;45.95;99529.50;4953830;28;20496;-64
2022/03/25 00:06:45;;;;;;;110.95;43.65;;;;;;;3.14;46.15;99536.16;4953419;28;20392;-64
2022/03/25 00:09:10;;;;;;;110.60;43.25;;;;;;;3.10;46.71;99526.81;4953933;28;20119;-64
2022/03/25 00:11:36;;;;;;;106.88;42.45;;;;;;;3.07;46.53;99528.09;4953472;28;20114;-64
2022/03/25 00:14:02;;;;;;;105.40;42.78;;;;;;;3.05;47.13;99527.50;4953829;28;20528;-64
2022/03/25 00:16:28;;;;;;;108.95;44.10;;;;;;;3.05;47.05;99527.50;4953750;28;20074;-64
2022/03/25 00:18:54;;;;;;;106.18;44.20;;;;;;;3.03;47.37;99520.66;4953407;28;20019;-64
2022/03/25 00:21:20;;;;;;;102.80;42.45;;;;;;;3.01;47.41;99520.84;4953157;28;20098;-64
2022/03/25 00:23:45;;;;;;;102.20;42.47;;;;;;;2.98;47.20;99524.00;4953656;28;20114;-64
2022/03/25 00:26:11;;;;;;;108.38;43.72;;;;;;;2.96;47.04;99529.66;4953663;28;20119;-64
2022/03/25 00:28:37;;;;;;;103.97;42.30;;;;;;;2.94;47.44;99523.63;4953052;28;20117;-64
2022/03/25 00:31:06;;;;;;;103.72;43.28;;;;;;;2.90;47.05;99525.09;4953789;28;20024;-64
2022/03/25 00:33:32;;;;;;;103.95;43.47;;;;;;;2.89;47.52;99523.44;4954431;28;20081;-64
2022/03/25 00:35:58;;;;;;;103.70;41.83;;;;;;;2.86;47.55;99521.16;4952609;28;20047;-64
2022/03/25 00:38:24;;;;;;;103.43;40.05;;;;;;;2.86;47.21;99517.59;4951823;28;20027;-64
2022/03/25 00:40:49;;;;;;;103.95;41.15;;;;;;;2.81;47.50;99521.00;4950630;28;20460;-64
2022/03/25 00:43:15;;;;;;;94.57;38.72;;;;;;;2.78;48.11;99516.84;4951935;28;20021;-64
2022/03/25 00:45:41;;;;;;;92.32;38.13;;;;;;;2.77;47.63;99517.06;4950778;28;20051;-65
2022/03/25 00:48:07;;;;;;;78.22;33.60;;;;;;;2.78;48.21;99513.28;4951612;28;20063;-64
2022/03/25 00:50:33;;;;;;;80.30;33.83;;;;;;;2.76;47.63;99513.53;4950198;28;20571;-64
2022/03/25 00:52:59;;;;;;;77.82;33.90;;;;;;;2.71;47.76;99501.66;4950887;28;20172;-64
2022/03/25 00:55:25;;;;;;;72.25;30.63;;;;;;;2.67;48.20;99512.94;4948179;28;20094;-64
2022/03/25 00:57:51;;;;;;;62.92;27.30;;;;;;;2.64;48.37;99513.41;4952328;28;20030;-64
2022/03/25 01:00:16;;;;;;;54.25;24.23;;;;;;;2.62;48.37;99510.09;4949966;28;20027;-64
2022/03/25 01:02:42;;;;;;;50.10;24.35;;;;;;;2.61;49.15;99505.72;4951942;28;20604;-64
2022/03/25 01:05:07;;;;;;;49.80;24.08;;;;;;;2.61;48.51;99500.31;4952984;28;20038;-64
2022/03/25 01:07:34;;;;;;;50.33;24.00;;;;;;;2.60;48.47;99506.75;4950531;28;20526;-64
2022/03/25 01:10:00;;;;;;;53.75;24.63;;;;;;;2.58;48.42;99508.00;4950956;28;20109;-63
2022/03/25 01:12:26;;;;;;;50.80;24.83;;;;;;;2.55;48.94;99503.03;4951897;28;20043;-64
2022/03/25 01:14:51;;;;;;;52.95;23.45;;;;;;;2.51;48.45;99499.94;4953810;28;20047;-64
2022/03/25 01:17:17;;;;;;;51.65;22.05;;;;;;;2.49;48.40;99504.75;4952909;28;20035;-64
2022/03/25 01:19:44;;;;;;;50.38;23.10;;;;;;;2.44;49.05;99502.69;4955660;28;20035;-64
2022/03/25 01:22:09;;;;;;;55.10;22.90;;;;;;;2.45;48.83;99503.50;4957885;28;20027;-65
2022/03/25 01:24:35;;;;;;;46.45;20.95;;;;;;;2.49;48.81;99499.31;4954393;28;20391;-64
2022/03/25 01:27:00;;;;;;;54.17;22.40;;;;;;;2.49;48.93;99496.63;4955438;28;20035;-65
2022/03/25 01:29:26;;;;;;;43.45;20.55;;;;;;;2.46;48.93;99505.16;4955120;28;20039;-65
2022/03/25 01:31:53;;;;;;;43.92;18.77;;;;;;;2.44;48.82;99496.44;4956306;28;20376;-65
2022/03/25 01:34:19;;;;;;;47.33;20.60;;;;;;;2.37;48.62;99497.28;4955633;28;20498;-64
2022/03/25 01:36:46;;;;;;;43.80;20.73;;;;;;;2.34;49.34;99495.03;4956651;28;20027;-65
2022/03/25 01:39:11;;;;;;;46.30;20.05;;;;;;;2.28;49.30;99493.16;4955725;28;20106;-64
2022/03/25 01:41:37;;;;;;;38.78;19.00;;;;;;;2.21;49.05;99497.81;4955102;28;20122;-65
2022/03/25 01:44:04;;;;;;;36.47;18.73;;;;;;;2.17;49.40;99502.00;4955885;28;20031;-64
2022/03/25 01:46:30;;;;;;;39.65;19.40;;;;;;;2.13;49.89;99498.06;4954263;28;20110;-64
2022/03/25 01:48:56;;;;;;;38.25;18.80;;;;;;;2.07;49.52;99505.13;4955001;28;20027;-64
2022/03/25 01:51:41;;;;;;;41.13;19.60;;;;;;;2.04;49.96;99502.84;4956664;28;20042;-64
2022/03/25 01:54:18;;;;;;;40.83;19.38;;;;;;;2.02;50.20;99502.28;4956392;28;20039;-64
2022/03/25 01:56:44;;;;;;;42.47;20.20;;;;;;;1.95;50.12;99496.88;4955955;28;20074;-64
2022/03/25 01:59:10;;;;;;;39.75;19.75;;;;;;;1.95;50.45;99499.56;4956046;28;20023;-64
2022/03/25 02:01:35;;;;;;;38.60;19.55;;;;;;;1.93;50.20;99497.09;4953246;28;20058;-64
2022/03/25 02:04:01;;;;;;;42.15;19.70;;;;;;;1.96;50.42;99495.81;4952198;28;20035;-64
2022/03/25 02:06:26;;;;;;;42.90;19.30;;;;;;;2.01;49.97;99496.00;4956159;28;20031;-65
2022/03/25 02:08:52;;;;;;;40.42;19.25;;;;;;;2.05;50.04;99510.78;4956646;28;20082;-64
2022/03/25 02:11:18;;;;;;;43.50;19.75;;;;;;;2.10;50.51;99495.78;4956646;28;20519;-64
2022/03/25 02:13:44;;;;;;;44.60;19.50;;;;;;;2.13;50.31;99496.16;4969209;28;20023;-64
2022/03/25 02:16:09;;;;;;;43.70;21.20;;;;;;;2.16;49.95;99494.91;4975079;28;20023;-64
2022/03/25 02:18:35;;;;;;;44.22;19.90;;;;;;;2.18;50.14;99493.66;4974952;28;20027;-65
2022/03/25 02:21:00;;;;;;;42.67;19.88;;;;;;;2.20;49.91;99501.56;4976177;28;20050;-64
2022/03/25 02:23:26;;;;;;;42.00;21.00;;;;;;;2.19;49.89;99494.50;4969717;28;20106;-64
2022/03/25 02:25:54;;;;;;;43.78;21.45;;;;;;;2.18;49.68;99493.66;4958394;28;20034;-64
2022/03/25 02:28:20;;;;;;;45.38;21.27;;;;;;;2.15;49.81;99495.97;4956661;28;20030;-65
2022/03/25 02:30:45;;;;;;;47.25;21.55;;;;;;;2.12;49.63;99504.50;4970974;28;20031;-65
2022/03/25 02:33:12;;;;;;;49.53;22.80;;;;;;;2.08;49.82;99496.81;4956072;28;20407;-64
2022/03/25 02:35:37;;;;;;;44.05;20.73;;;;;;;2.07;49.39;99497.03;4956372;28;20019;-65
2022/03/25 02:38:07;;;;;;;47.58;20.70;;;;;;;2.06;49.76;99498.06;4956811;28;20038;-64
2022/03/25 02:40:32;;;;;;;52.17;24.00;;;;;;;2.07;50.01;99505.97;4956217;28;20484;-64
2022/03/25 02:42:58;;;;;;;46.03;20.95;;;;;;;2.10;49.49;99498.47;4955922;28;20062;-65
2022/03/25 02:45:24;;;;;;;49.00;22.80;;;;;;;2.09;49.64;99503.06;4955768;28;20054;-64
2022/03/25 02:47:49;;;;;;;48.22;21.60;;;;;;;2.06;49.37;99495.34;4956308;28;20491;-64
2022/03/25 02:50:16;;;;;;;46.60;22.58;;;;;;;2.05;49.54;99499.94;4956204;28;20030;-64
2022/03/25 02:52:41;;;;;;;52.78;23.30;;;;;;;2.03;49.43;99504.75;4955902;28;20030;-65
2022/03/25 02:55:08;;;;;;;52.05;23.55;;;;;;;2.04;49.89;99508.28;4969923;28;20031;-64
2022/03/25 02:57:36;;;;;;;47.03;22.73;;;;;;;2.00;49.46;99501.66;4954741;28;20031;-64
2022/03/25 03:00:04;;;;;;;47.38;22.35;;;;;;;1.94;49.92;99503.31;4956046;28;20031;-64
2022/03/25 03:02:30;;;;;;;51.88;24.15;;;;;;;1.89;49.56;99497.72;4949085;28;20457;-64
2022/03/25 03:04:55;;;;;;;46.67;22.45;;;;;;;1.89;49.87;99511.25;4955852;28;20020;-64
2022/03/25 03:07:21;;;;;;;47.78;22.92;;;;;;;1.82;49.79;99507.75;4953843;28;20049;-65
2022/03/25 03:09:46;;;;;;;48.05;23.05;;;;;;;1.77;49.82;99502.97;4953881;28;20124;-64
2022/03/25 03:12:12;;;;;;;52.72;24.52;;;;;;;1.69;49.87;99498.63;4955116;28;20046;-64
2022/03/25 03:14:38;;;;;;;57.40;24.25;;;;;;;1.66;49.90;99500.91;4950409;28;20143;-65
2022/03/25 03:17:04;;;;;;;52.28;25.20;;;;;;;1.58;49.82;99502.81;4949621;28;20477;-64
2022/03/25 03:19:31;;;;;;;51.42;23.75;;;;;;;1.50;49.71;99505.75;4951460;28;20027;-64
2022/03/25 03:21:57;;;;;;;57.33;24.30;;;;;;;1.40;49.87;99508.88;4953870;28;20023;-64
2022/03/25 03:24:23;;;;;;;54.53;24.45;;;;;;;1.32;49.91;99498.28;4947836;28;20027;-64
2022/03/25 03:26:48;;;;;;;52.25;24.88;;;;;;;1.28;50.24;99508.66;4953710;28;20039;-64
2022/03/25 03:29:13;;;;;;;52.08;23.00;;;;;;;1.24;50.67;99507.41;4954347;28;20031;-64
2022/03/25 03:31:39;;;;;;;56.63;23.60;;;;;;;1.19;50.51;99505.34;4954552;28;20034;-64
2022/03/25 03:34:04;;;;;;;51.38;23.88;;;;;;;1.16;50.77;99496.84;4954708;28;20550;-64
2022/03/25 03:36:30;;;;;;;51.75;23.92;;;;;;;1.14;51.18;99504.34;4968860;28;20034;-64
2022/03/25 03:38:55;;;;;;;60.95;24.27;;;;;;;1.12;50.83;99498.31;4951030;28;20106;-64
2022/03/25 03:41:21;;;;;;;53.28;24.60;;;;;;;1.08;50.86;99503.28;4953222;28;20090;-64
2022/03/25 03:43:46;;;;;;;49.60;24.92;;;;;;;1.07;51.15;99507.00;4953902;28;20034;-64
2022/03/25 03:46:11;;;;;;;51.97;25.23;;;;;;;1.04;50.90;99507.44;4954601;28;20064;-64
2022/03/25 03:48:37;;;;;;;54.92;25.10;;;;;;;1.00;51.21;99500.81;4952574;28;20031;-65
2022/03/25 03:51:02;;;;;;;56.03;25.35;;;;;;;1.00;51.66;99508.91;4954036;28;20054;-64
2022/03/25 03:53:27;;;;;;;56.28;25.00;;;;;;;1.00;51.61;99511.63;4952629;28;20090;-64
2022/03/25 03:55:53;;;;;;;52.63;25.48;;;;;;;1.00;51.61;99512.44;4954993;28;20035;-64
2022/03/25 03:58:21;;;;;;;54.13;24.50;;;;;;;1.03;51.58;99506.59;4953505;28;20509;-64
2022/03/25 04:00:46;;;;;;;50.22;23.40;;;;;;;1.07;51.76;99511.59;4951953;28;20046;-64
2022/03/25 04:03:12;;;;;;;55.00;25.02;;;;;;;1.08;51.71;99514.06;4948795;28;20475;-64
2022/03/25 04:05:37;;;;;;;51.58;24.60;;;;;;;1.08;51.83;99513.25;4954727;28;20027;-64
2022/03/25 04:08:03;;;;;;;49.80;23.67;;;;;;;1.11;51.82;99510.97;4952820;28;20027;-64
2022/03/25 04:10:29;;;;;;;50.97;25.35;;;;;;;1.12;51.88;99509.09;4954423;28;20163;-64
2022/03/25 04:12:55;;;;;;;50.45;23.05;;;;;;;1.14;51.65;99509.72;4954494;28;20027;-64
2022/03/25 04:15:20;;;;;;;45.13;23.02;;;;;;;1.13;51.93;99506.19;4967270;28;20042;-64
2022/03/25 04:17:46;;;;;;;54.22;24.50;;;;;;;1.12;52.07;99512.63;4954945;28;20027;-64
2022/03/25 04:20:14;;;;;;;45.60;22.73;;;;;;;1.12;52.17;99518.03;4954273;28;20020;-64
2022/03/25 04:22:39;;;;;;;54.50;25.88;;;;;;;1.11;52.65;99515.56;4954896;28;20119;-64
2022/03/25 04:25:07;;;;;;;50.40;24.60;;;;;;;1.13;52.34;99517.00;4954175;28;20466;-65
2022/03/25 04:27:33;;;;;;;53.38;26.00;;;;;;;1.17;52.50;99510.13;4954374;28;20070;-64
2022/03/25 04:29:58;;;;;;;52.55;25.85;;;;;;;1.18;52.25;99509.09;4951056;28;20054;-64
2022/03/25 04:32:24;;;;;;;51.33;25.13;;;;;;;1.21;52.37;99498.91;4951363;28;20093;-64
2022/03/25 04:34:49;;;;;;;46.20;24.60;;;;;;;1.23;52.59;99518.44;4968960;28;20078;-63
2022/03/25 04:37:15;;;;;;;46.15;24.00;;;;;;;1.25;52.21;99513.66;4951101;28;20038;-65
2022/03/25 04:39:40;;;;;;;48.55;24.58;;;;;;;1.25;52.21;99505.56;4954033;28;20047;-65
2022/03/25 04:42:07;;;;;;;45.63;23.52;;;;;;;1.23;52.16;99508.47;4952849;28;20074;-63
2022/03/25 04:44:33;;;;;;;45.67;23.50;;;;;;;1.25;52.38;99511.78;4954155;28;20031;-64
2022/03/25 04:46:59;;;;;;;46.35;24.20;;;;;;;1.27;52.50;99508.88;4953486;28;20098;-64
2022/03/25 04:49:25;;;;;;;53.97;24.80;;;;;;;1.32;52.52;99507.22;4967746;28;20051;-64
2022/03/25 04:51:51;;;;;;;48.88;24.08;;;;;;;1.35;52.66;99514.09;4951157;28;20050;-64
2022/03/25 04:54:16;;;;;;;44.22;23.80;;;;;;;1.36;52.33;99515.75;4953460;28;20432;-64
2022/03/25 04:56:42;;;;;;;45.35;23.65;;;;;;;1.35;52.41;99522.19;4954247;28;20129;-64
2022/03/25 04:59:08;;;;;;;40.00;22.33;;;;;;;1.32;52.56;99520.72;4966418;28;20039;-65
2022/03/25 05:01:34;;;;;;;42.92;22.10;;;;;;;1.34;52.72;99523.22;4953064;28;20042;-64
2022/03/25 05:03:59;;;;;;;43.65;20.80;;;;;;;1.33;52.41;99521.56;4951791;28;20102;-64
2022/03/25 05:06:25;;;;;;;44.80;23.45;;;;;;;1.34;52.84;99525.94;4953212;28;20110;-64
2022/03/25 05:08:50;;;;;;;44.17;20.50;;;;;;;1.38;52.55;99529.03;4953359;28;20039;-64
2022/03/25 05:11:15;;;;;;;46.25;20.73;;;;;;;1.41;53.08;99529.47;4953683;28;20125;-64
2022/03/25 05:13:41;;;;;;;45.30;20.98;;;;;;;1.46;53.06;99531.53;4953161;28;20453;-64
2022/03/25 05:16:06;;;;;;;45.67;22.20;;;;;;;1.52;52.62;99528.00;4953820;28;20038;-64
2022/03/25 05:18:32;;;;;;;40.15;19.95;;;;;;;1.60;52.98;99537.75;4952435;28;20059;-65
2022/03/25 05:20:57;;;;;;;41.88;20.33;;;;;;;1.67;52.81;99546.69;4952809;28;20118;-64
2022/03/25 05:23:23;;;;;;;43.83;20.85;;;;;;;1.72;53.25;99541.47;4953523;28;20070;-64
2022/03/25 05:25:48;;;;;;;42.47;21.30;;;;;;;1.78;52.80;99542.50;4965570;28;20547;-65
2022/03/25 05:28:15;;;;;;;41.55;20.67;;;;;;;1.83;52.42;99547.28;4949828;28;20075;-64
2022/03/25 05:30:41;;;;;;;44.10;20.80;;;;;;;1.86;52.72;99553.09;4953587;28;20036;-64
2022/03/25 05:33:06;;;;;;;46.67;21.80;;;;;;;1.92;53.33;99554.09;4951597;28;20380;-64
2022/03/25 05:35:32;;;;;;;45.13;20.88;;;;;;;2.01;53.26;99550.13;4953247;28;20031;-64
2022/03/25 05:37:57;;;;;;;41.95;20.38;;;;;;;2.08;53.00;99555.50;4952622;28;20089;-64
2022/03/25 05:40:25;;;;;;;48.75;22.90;;;;;;;2.13;52.54;99553.00;4950537;28;20034;-64
2022/03/25 05:42:51;;;;;;;48.70;22.48;;;;;;;2.17;53.12;99556.13;4952879;28;20620;-65
2022/03/25 05:45:21;;;;;;;53.40;23.17;;;;;;;2.25;52.37;99553.16;4952234;28;20043;-64
2022/03/25 05:47:47;;;;;;;46.92;22.38;;;;;;;2.30;52.78;99555.25;4953356;28;20444;-64
2022/03/25 05:50:13;;;;;;;51.10;23.00;;;;;;;2.38;52.68;99553.09;4952546;28;20043;-64
2022/03/25 05:52:40;;;;;;;46.55;22.42;;;;;;;2.49;52.84;99561.59;4950241;28;20058;-64
2022/03/25 05:55:06;;;;;;;49.63;22.75;;;;;;;2.60;52.85;99563.63;4953346;28;20038;-64
2022/03/25 05:57:32;;;;;;;44.75;23.25;;;;;;;2.70;52.90;99560.44;4952808;28;20039;-64
2022/03/25 05:59:59;;;;;;;54.22;24.42;;;;;;;2.79;53.06;99559.16;4952423;28;20394;-64
2022/03/25 06:02:25;;;;;;;47.42;23.95;;;;;;;2.89;52.91;99563.25;4952475;28;20090;-64
2022/03/25 06:04:52;;;;;;;46.58;23.42;;;;;;;3.00;52.39;99564.44;4955341;28;20028;-63
2022/03/25 06:07:17;;;;;;;47.28;24.08;;;;;;;3.12;52.22;99562.66;4954871;28;20031;-64
2022/03/25 06:09:43;;;;;;;51.35;25.42;;;;;;;3.26;51.99;99558.81;4955795;28;20032;-64
2022/03/25 06:12:10;;;;;;;62.72;28.92;;;;;;;3.43;52.06;99569.94;4953330;28;20024;-64
2022/03/25 06:14:35;;;;;;;62.40;31.35;;;;;;;3.56;52.37;99574.41;4956289;28;20086;-64
2022/03/25 06:17:01;;;;;;;66.32;31.38;;;;;;;3.71;51.88;99574.06;4955957;28;20030;-64
2022/03/25 06:19:28;;;;;;;54.33;27.13;;;;;;;3.85;52.39;99573.94;4955143;28;20034;-64
2022/03/25 06:21:55;;;;;;;56.42;25.98;;;;;;;3.97;52.20;99571.28;4955880;28;20019;-64
2022/03/25 06:24:21;;;;;;;43.63;23.27;;;;;;;4.09;51.93;99590.38;4956791;28;20391;-64
2022/03/25 06:26:46;;;;;;;51.80;25.70;;;;;;;4.19;51.24;99579.00;4956474;28;20126;-64
2022/03/25 06:29:11;;;;;;;50.30;26.50;;;;;;;4.30;51.11;99581.78;4954450;28;20035;-64
2022/03/25 06:31:37;;;;;;;59.83;28.85;;;;;;;4.47;51.10;99584.72;4951883;28;20384;-65
2022/03/25 06:34:03;;;;;;;53.20;24.73;;;;;;;4.68;51.36;99587.19;4955012;28;20035;-64
2022/03/25 06:36:29;;;;;;;50.53;24.02;;;;;;;4.84;50.52;99585.69;4971184;28;20031;-64
2022/03/25 06:38:55;;;;;;;73.10;31.77;;;;;;;4.97;50.58;99590.13;4952124;28;20032;-64
2022/03/25 06:41:20;;;;;;;98.10;37.10;;;;;;;5.10;50.56;99592.66;4954231;28;20472;-65
2022/03/25 06:43:45;;;;;;;79.25;32.30;;;;;;;5.22;50.26;99592.66;4956540;28;20392;-64
2022/03/25 06:46:12;;;;;;;93.15;38.00;;;;;;;5.37;50.25;99584.06;4953066;28;20047;-64
2022/03/25 06:48:37;;;;;;;69.07;31.48;;;;;;;5.49;49.78;99589.53;4953563;28;20147;-65
2022/03/25 06:51:05;;;;;;;75.45;34.25;;;;;;;5.62;49.29;99599.38;4955981;28;20035;-64
2022/03/25 06:53:31;;;;;;;69.53;34.05;;;;;;;5.74;49.29;99593.94;4955795;28;20031;-64
2022/03/25 06:55:56;;;;;;;64.03;29.10;;;;;;;5.90;49.55;99597.84;4956163;28;20380;-64
2022/03/25 06:58:22;;;;;;;67.35;33.40;;;;;;;6.03;49.50;99602.22;4954557;28;20106;-64
2022/03/25 07:00:48;;;;;;;68.40;29.17;;;;;;;6.16;48.76;99596.53;4951779;28;20031;-64
2022/03/25 07:03:14;;;;;;;48.97;24.33;;;;;;;6.32;49.17;99600.41;4955496;28;20027;-63
2022/03/25 07:05:40;;;;;;;51.15;25.55;;;;;;;6.43;48.94;99596.00;4953291;28;20086;-64
2022/03/25 07:08:06;;;;;;;57.03;28.33;;;;;;;6.53;48.75;99598.94;4954496;28;20535;-64
2022/03/25 07:10:33;;;;;;;56.28;24.77;;;;;;;6.64;48.20;99599.16;4954937;28;20045;-64
2022/03/25 07:12:58;;;;;;;44.05;21.20;;;;;;;6.74;47.71;99604.78;4952739;28;20038;-63
2022/03/25 07:15:24;;;;;;;51.75;25.02;;;;;;;6.85;47.53;99605.84;4952502;28;20035;-64
2022/03/25 07:17:52;;;;;;;51.33;24.58;;;;;;;6.94;47.50;99609.00;4955528;28;20031;-64
2022/03/25 07:20:18;;;;;;;50.65;24.48;;;;;;;7.04;47.18;99605.63;4955099;28;20038;-63
2022/03/25 07:22:46;;;;;;;41.85;20.15;;;;;;;7.11;47.27;99600.84;4954776;28;20031;-64
2022/03/25 07:25:12;;;;;;;60.15;26.30;;;;;;;7.21;46.97;99608.38;4953656;28;20454;-64
2022/03/25 07:27:38;;;;;;;45.20;21.98;;;;;;;7.29;46.92;99606.09;4950214;28;20069;-63
2022/03/25 07:30:04;;;;;;;45.35;22.30;;;;;;;7.37;47.10;99604.88;4957412;28;20027;-64
2022/03/25 07:32:30;;;;;;;51.47;25.92;;;;;;;7.47;46.76;99606.13;4963191;28;20432;-63
2022/03/25 07:34:56;;;;;;;47.72;25.25;;;;;;;7.61;46.50;99607.44;4951828;28;20089;-64
2022/03/25 07:37:21;;;;;;;53.35;28.20;;;;;;;7.70;46.54;99610.59;4942332;28;20460;-63
2022/03/25 07:39:47;;;;;;;44.47;22.85;;;;;;;7.81;45.87;99606.91;4953438;28;20468;-63
2022/03/25 07:42:12;;;;;;;52.20;25.33;;;;;;;7.90;46.08;99612.81;4953999;28;20027;-63
2022/03/25 07:44:39;;;;;;;55.40;27.20;;;;;;;8.01;45.93;99619.25;4953144;28;20034;-63
2022/03/25 07:47:05;;;;;;;55.67;26.83;;;;;;;8.14;45.71;99615.31;4953638;28;20118;-63
2022/03/25 07:49:34;;;;;;;52.55;26.13;;;;;;;8.25;45.54;99617.13;4953705;28;20039;-63
2022/03/25 07:52:00;;;;;;;46.20;22.02;;;;;;;8.36;45.48;99618.09;4954081;28;20027;-62
2022/03/25 07:54:25;;;;;;;45.78;25.88;;;;;;;8.45;44.81;99616.56;4954193;28;20047;-62
2022/03/25 07:56:51;;;;;;;46.63;23.25;;;;;;;8.56;44.93;99630.41;4981161;28;20030;-63
2022/03/25 07:59:16;;;;;;;42.00;21.27;;;;;;;8.63;44.71;99622.81;4951461;28;20042;-63
2022/03/25 08:01:41;;;;;;;42.15;22.05;;;;;;;8.74;44.03;99623.78;4952126;28;20067;-63
2022/03/25 08:04:07;;;;;;;36.47;18.13;;;;;;;8.85;43.67;99622.81;4954288;28;20059;-63
2022/03/25 08:06:35;;;;;;;41.05;20.13;;;;;;;8.92;43.46;99626.19;4948215;28;20428;-65
2022/03/25 08:09:01;;;;;;;45.65;23.10;;;;;;;9.03;43.86;99629.03;4951750;28;20039;-63
2022/03/25 08:11:27;;;;;;;39.00;20.63;;;;;;;9.13;43.48;99626.41;4952644;28;20019;-63
2022/03/25 08:13:52;;;;;;;33.70;17.58;;;;;;;9.19;42.87;99621.81;4965312;28;20023;-64
2022/03/25 08:16:18;;;;;;;36.03;18.80;;;;;;;9.29;42.64;99618.34;4963629;28;20415;-62
2022/03/25 08:18:44;;;;;;;31.25;16.35;;;;;;;9.39;42.14;99621.19;4950266;28;20035;-65
2022/03/25 08:21:11;;;;;;;29.80;16.80;;;;;;;9.48;41.66;99622.38;4954185;28;20019;-63
2022/03/25 08:29:04;;;;;;;30.27;15.93;;;;;;;9.76;39.84;99620.38;4973297;28;20475;-64
2022/03/25 08:31:29;;;;;;;35.28;18.80;;;;;;;9.86;40.64;99627.03;4972469;28;20113;-64
2022/03/25 08:33:55;;;;;;;34.33;16.98;;;;;;;9.94;40.10;99623.81;4966273;28;20074;-65
2022/03/25 08:36:21;;;;;;;22.17;12.20;;;;;;;10.00;39.13;99617.25;4954391;28;20035;-64
2022/03/25 08:38:46;;;;;;;14.18;8.82;;;;;;;10.05;38.71;99621.97;4953083;28;20399;-64
2022/03/25 08:41:13;;;;;;;18.70;10.77;;;;;;;10.09;37.61;99621.16;4954093;28;20050;-64
2022/03/25 08:43:38;;;;;;;25.23;12.27;;;;;;;10.14;38.49;99623.13;4954406;28;20115;-64
2022/03/25 08:46:05;;;;;;;18.75;10.35;;;;;;;10.23;38.02;99621.50;4950032;28;20058;-65
2022/03/25 08:48:31;;;;;;;18.73;10.35;;;;;;;10.24;36.37;99622.34;4954241;28;20098;-65
2022/03/25 08:50:57;;;;;;;18.70;9.57;;;;;;;10.31;36.87;99630.34;4970203;28;20364;-65
2022/03/25 08:53:22;;;;;;;18.52;10.10;;;;;;;10.35;37.29;99620.50;4953896;28;20035;-64
2022/03/25 08:55:47;;;;;;;16.80;10.05;;;;;;;10.43;36.77;99622.75;4954526;28;20031;-65
2022/03/25 08:58:13;;;;;;;19.95;10.20;;;;;;;10.51;36.53;99625.00;4948827;28;20046;-64
2022/03/25 09:00:39;;;;;;;22.13;11.43;;;;;;;10.57;37.33;99620.34;4952001;28;20106;-64
2022/03/25 09:03:05;;;;;;;19.63;10.80;;;;;;;10.64;37.17;99622.84;4960720;28;20117;-63
2022/03/25 09:05:31;;;;;;;19.17;10.18;;;;;;;10.69;36.11;99618.22;4967830;28;20089;-64
2022/03/25 09:07:56;;;;;;;22.48;11.30;;;;;;;10.79;36.16;99616.63;4967547;28;20058;-64
2022/03/25 09:10:22;;;;;;;25.42;12.88;;;;;;;10.87;36.58;99613.31;4957410;28;20031;-64
2022/03/25 09:12:47;;;;;;;26.65;12.73;;;;;;;10.90;36.37;99621.03;4958414;28;20034;-64
2022/03/25 09:15:15;;;;;;;19.48;11.55;;;;;;;10.92;36.29;99616.09;4960849;28;20046;-64
2022/03/25 09:17:45;;;;;;;24.80;13.25;;;;;;;11.01;36.32;99611.72;4951697;28;20050;-62
2022/03/25 09:20:12;;;;;;;22.45;12.07;;;;;;;11.10;36.45;99609.28;4950764;28;20504;-63
2022/03/25 09:22:38;;;;;;;21.95;12.50;;;;;;;11.24;36.98;99617.81;4950762;28;20037;-63
2022/03/25 09:25:05;;;;;;;27.67;14.20;;;;;;;11.34;36.08;99607.94;4953316;28;20039;-63
2022/03/25 09:27:30;;;;;;;20.50;11.73;;;;;;;11.32;35.01;99608.22;4965578;28;20031;-65
2022/03/25 09:29:56;;;;;;;21.08;12.43;;;;;;;11.27;34.99;99609.03;4950220;28;20133;-63
2022/03/25 09:32:21;;;;;;;19.58;11.30;;;;;;;11.31;35.20;99607.38;4965404;28;20039;-63
2022/03/25 09:37:33;;;;;;;24.67;11.05;;;;;;;11.53;34.96;99606.31;4952550;28;20526;-64
2022/03/25 09:39:59;;;;;;;20.30;10.73;;;;;;;11.60;34.60;99604.13;4952240;28;20115;-64
2022/03/25 09:42:25;;;;;;;31.50;11.48;;;;;;;11.68;35.08;99602.72;4945386;28;20622;-65
2022/03/25 09:44:50;;;;;;;24.20;10.45;;;;;;;11.75;35.00;99600.53;4949040;28;20023;-65
2022/03/25 09:47:17;;;;;;;23.42;12.10;;;;;;;11.84;34.69;99606.28;4954428;28;20059;-65
2022/03/25 09:49:44;;;;;;;24.27;12.43;;;;;;;12.02;34.42;99610.41;4969681;28;20027;-63
2022/03/25 09:52:10;;;;;;;23.98;13.38;;;;;;;12.05;34.10;99598.88;4954603;28;20074;-63
2022/03/25 09:54:35;;;;;;;22.80;12.43;;;;;;;12.15;34.15;99598.00;4953546;28;20035;-64
2022/03/25 09:57:02;;;;;;;21.42;11.90;;;;;;;12.22;34.96;99597.75;4956423;28;20027;-63
2022/03/25 09:59:27;;;;;;;23.38;12.82;;;;;;;12.32;34.65;99602.38;4956312;28;20054;-63
2022/03/25 10:01:53;;;;;;;21.63;11.60;;;;;;;12.41;33.26;99608.13;4954863;28;20115;-66
2022/03/25 10:04:41;;;;;;;25.67;13.45;;;;;;;12.45;33.80;99603.72;4954610;28;20015;-64
2022/03/25 10:07:20;;;;;;;22.35;12.02;;;;;;;12.48;33.95;99601.22;4953911;28;20047;-63
2022/03/25 10:10:05;;;;;;;26.37;13.83;;;;;;;12.58;33.66;99597.63;4950450;28;20034;-64
2022/03/25 10:12:31;;;;;;;22.52;14.02;;;;;;;12.63;33.48;99596.75;4957104;28;20023;-63
2022/03/25 10:15:23;;;;;;;21.77;12.93;;;;;;;12.76;34.73;99598.06;4972037;28;20033;-63
2022/03/25 10:17:56;;;;;;;25.35;12.85;;;;;;;12.90;34.04;99603.78;4972910;28;20034;-64
2022/03/25 10:20:24;;;;;;;23.00;13.35;;;;;;;12.94;34.70;99591.09;4970085;28;20042;-63
2022/03/25 10:23:19;;;;;;;24.73;13.90;;;;;;;13.06;35.11;99594.34;4972703;28;20089;-63
2022/03/25 10:25:48;;;;;;;24.98;13.85;;;;;;;13.17;34.25;99591.53;4973037;28;20047;-63
2022/03/25 10:28:29;;;;;;;24.65;13.57;;;;;;;13.24;34.09;99597.53;4975620;28;20377;-63
2022/03/25 10:30:59;;;;;;;21.02;12.07;;;;;;;13.28;34.35;99592.28;4973737;28;20031;-64
2022/03/25 10:33:34;;;;;;;;;;;;;;;13.37;34.51;99591.38;4975604;28;20412;-64
2022/03/25 10:36:08;;;;;;;27.90;14.82;;;;;;;13.45;34.23;99586.38;4975106;28;19914;-64
2022/03/25 10:39:00;;;;;;;25.48;14.25;;;;;;;13.46;33.65;99588.84;4960450;28;20027;-64
2022/03/25 10:41:37;;;;;;;18.30;11.43;;;;;;;13.47;32.86;99593.25;4968109;28;20082;-64
2022/03/25 10:44:04;;;;;;;21.83;12.25;;;;;;;13.51;32.99;99588.00;4955804;28;20035;-63
2022/03/25 10:46:40;;;;;;;19.52;11.23;;;;;;;13.56;33.01;99585.19;4955198;28;20051;-64
2022/03/25 10:49:11;;;;;;;18.17;10.95;;;;;;;13.57;33.48;99577.75;4955274;28;20046;-65
2022/03/25 10:51:39;;;;;;;18.35;10.60;;;;;;;13.59;33.19;99581.03;4953576;28;20086;-64
2022/03/25 10:54:13;;;;;;;21.38;10.48;;;;;;;13.64;33.37;99578.22;4955587;28;20038;-64
2022/03/25 10:56:45;;;;;;;17.55;9.60;;;;;;;13.71;33.09;99570.44;4953449;28;20066;-64
2022/03/25 10:59:28;;;;;;;12.10;6.60;;;;;;;13.76;33.35;99564.06;4953780;28;20027;-64
2022/03/25 11:02:01;;;;;;;19.75;11.15;;;;;;;13.87;33.38;99570.28;4952751;28;20057;-64
2022/03/25 11:04:28;;;;;;;18.85;9.60;;;;;;;13.94;33.35;99571.63;4978042;28;20047;-63
2022/03/25 11:06:54;;;;;;;16.27;8.75;;;;;;;14.02;33.54;99569.34;4947944;28;20069;-64
2022/03/25 11:09:21;;;;;;;17.88;10.25;;;;;;;14.08;33.25;99565.38;4954303;28;20435;-64
2022/03/25 11:11:48;;;;;;;17.80;10.52;;;;;;;14.17;33.27;99566.41;4953999;28;20035;-64
2022/03/25 11:14:14;;;;;;;16.80;10.13;;;;;;;14.22;33.11;99562.78;4954124;28;20110;-64
2022/03/25 11:17:07;;;;;;;26.65;12.82;;;;;;;14.33;32.70;99564.28;4954936;28;20029;-64
2022/03/25 11:19:37;;;;;;;18.30;10.60;;;;;;;14.38;32.92;99552.38;4953304;28;20600;-64
2022/03/25 11:22:04;;;;;;;17.30;9.55;;;;;;;14.47;32.96;99549.78;4953609;28;20027;-63
2022/03/25 11:24:50;;;;;;;15.73;9.68;;;;;;;14.44;31.93;99552.00;4952643;28;20031;-64
2022/03/25 11:27:19;;;;;;;19.50;10.73;;;;;;;14.43;32.50;99555.06;4954231;28;20512;-64
2022/03/25 11:29:48;;;;;;;17.42;9.93;;;;;;;14.41;31.59;99549.03;4953828;28;20109;-64
2022/03/25 11:32:15;;;;;;;20.45;11.45;;;;;;;14.39;32.18;99543.78;4944262;28;20051;-64